Selfridge, Michigan
Current Conditions -  °F | °C
As of 7:55 AM on Saturday 20 Dec 2014 (Local Time) from KMTC Reporting Station
Broken Clouds Broken Clouds  
Wind Chill: 22°   Ceiling: 2800
Heat Index: 22°   Visibility: 10mi
Dew Point: 22°   Wind: 0mph
Humidity: 99%   Direction: NA
Pressure: 30.28"   Gusts: NA
Location:  42.5826°N, 82.8345°W
Report Text: KMTC 201255Z 00000KT 10SM BKN028 BKN200 M05/M06 A3028 RMK SLP272 T10551056
Loading
Personal Weather Stations






























Interactive Weather Map New forecast layout! Learn more

10-Day Weather Forecast

Advertisements
Track Severe Weather on mobile